Current | Forecast
Updated: 7:00 AM JST on June 24, 2017
Observed at Chitose AB, Japan
Temperature 61°F
Humidity 100%
Dew Point 61°F
Wind SSE at 7 mph
Pressure 29.68 in (Steady)
Conditions Mostly Cloudy
Visibility 2.5 miles
UV 1 out of 16
Clouds (FEW) : 200 ft
Mostly Cloudy (BKN) : 300 ft
Mostly Cloudy (BKN) : 500 ft
Yesterday's Maximum 75°F
Yesterday's Minimum 57°F approx.
Yesterday's Cooling Degree Days 1 approx.
Sunrise3:55 AM JST
Sunset7:15 PM JST
Moon Rise4:02 AM JST
Moon Set7:08 PM JST
Moon PhaseMoon Phase
Waning Crescent
Raw METARMETAR RJCC 232200Z 15006KT 4000 BR FEW002 BKN003 BKN005 16/16 Q1005 RMK 1ST002 5ST003 7ST005 A2970


Monday
. High: 62° F.
Tuesday
. High: 62° F.
Wednesday
. High: 59° F.
Thursday
. High: 59° F.
Friday
. High: 60° F.
Saturday
. High: 59° F.
Sunday
. High: 53° F.
Monday
. High: 53° F.

Units: English | Metric

Find the Weather for any City, State or Zipcode, or Country:

U.S. State List | Severe Weather | Tropical Storms | Ski Conditions
United States | Canada | Central America | South America | Asia | Europe | Australia | Africa | Islands

Weather Underground

© Copyright 2017
The Weather Company, LLC